createdAt,value
2019-05-14T00:01:11.832Z,103001.30
2019-05-14T00:03:42.524Z,103000.64
2019-05-14T00:06:13.825Z,103004.76
2019-05-14T00:08:45.130Z,103007.28
2019-05-14T00:11:16.546Z,103006.50
2019-05-14T00:13:47.808Z,103008.91
2019-05-14T00:16:21.641Z,103001.16
2019-05-14T00:18:52.151Z,103006.04
2019-05-14T00:21:23.455Z,103006.73
2019-05-14T00:23:54.705Z,103000.80
2019-05-14T00:26:25.977Z,103000.57
2019-05-14T00:28:57.237Z,102996.77
2019-05-14T00:31:28.651Z,102993.36
2019-05-14T00:34:01.743Z,102993.89
2019-05-14T00:36:33.181Z,102991.80
2019-05-14T00:39:04.959Z,102992.64
2019-05-14T00:41:36.305Z,103001.59
2019-05-14T00:44:07.672Z,102997.41
2019-05-14T00:46:40.969Z,102996.63
2019-05-14T00:49:12.025Z,102992.31
2019-05-14T00:51:43.246Z,102991.14
2019-05-14T00:54:14.495Z,102993.89
2019-05-14T00:56:45.767Z,102993.53
2019-05-14T00:59:17.090Z,102992.48
2019-05-14T01:01:48.362Z,102987.74
2019-05-14T01:04:19.662Z,102981.57
2019-05-14T01:06:51.238Z,102973.19
2019-05-14T01:09:22.785Z,102976.23
2019-05-14T01:11:54.014Z,102968.73
2019-05-14T01:14:25.261Z,102981.23
2019-05-14T01:16:56.526Z,102984.95
2019-05-14T01:19:27.785Z,102984.79
2019-05-14T01:22:01.539Z,102993.11
2019-05-14T01:24:32.499Z,102994.69
2019-05-14T01:27:03.878Z,102996.62
2019-05-14T01:29:35.158Z,102994.52
2019-05-14T01:32:06.427Z,102989.13
2019-05-14T01:34:37.696Z,102988.87
2019-05-14T01:37:11.393Z,102987.70
2019-05-14T01:39:42.195Z,102991.91
2019-05-14T01:42:13.573Z,102987.45
2019-05-14T01:44:44.812Z,102989.92
2019-05-14T01:47:16.010Z,102998.08
2019-05-14T01:49:47.374Z,102996.14
2019-05-14T01:52:18.640Z,102996.40
2019-05-14T01:54:51.581Z,102996.27
2019-05-14T01:57:23.032Z,102989.02
2019-05-14T01:59:54.366Z,102999.30
2019-05-14T02:02:25.743Z,102990.73
2019-05-14T02:04:57.251Z,102989.43
2019-05-14T02:07:28.696Z,102989.69
2019-05-14T02:10:01.165Z,102988.12
2019-05-14T02:12:33.668Z,102983.89
2019-05-14T02:15:05.200Z,102983.38
2019-05-14T02:17:36.457Z,102988.78
2019-05-14T02:20:08.803Z,102990.61
2019-05-14T02:22:41.678Z,102985.48
2019-05-14T02:25:13.230Z,102987.06
2019-05-14T02:27:44.533Z,102986.80
2019-05-14T02:30:19.122Z,102990.46
2019-05-14T02:32:49.813Z,102990.20
2019-05-14T02:35:21.388Z,102988.64
2019-05-14T02:37:52.672Z,102989.15
2019-05-14T02:40:24.683Z,102986.11
2019-05-14T02:42:59.043Z,102977.03
2019-05-14T02:45:30.283Z,102981.23
2019-05-14T02:48:02.969Z,102978.34
2019-05-14T02:50:34.273Z,102987.80
2019-05-14T02:53:05.603Z,102988.05
2019-05-14T02:55:39.011Z,102984.38
2019-05-14T02:58:10.163Z,102983.73
2019-05-14T03:00:41.690Z,102980.42
2019-05-14T03:03:13.057Z,102979.62
2019-05-14T03:05:44.805Z,102980.55
2019-05-14T03:08:19.481Z,102979.36
2019-05-14T03:10:50.317Z,102986.44
2019-05-14T03:13:22.045Z,102978.42
2019-05-14T03:15:53.444Z,102976.43
2019-05-14T03:18:24.725Z,102981.94
2019-05-14T03:20:56.186Z,102982.99
2019-05-14T03:23:30.169Z,102987.19
2019-05-14T03:26:01.089Z,102978.87
2019-05-14T03:28:32.355Z,102984.67
2019-05-14T03:31:04.255Z,102978.36
2019-05-14T03:33:36.004Z,102975.85
2019-05-14T03:36:15.081Z,102977.12
2019-05-14T03:38:40.301Z,102977.48
2019-05-14T03:41:14.063Z,102975.75
2019-05-14T03:43:44.653Z,102978.63
2019-05-14T03:46:16.022Z,102980.73
2019-05-14T03:48:49.258Z,102980.98
2019-05-14T03:51:20.607Z,102977.30
2019-05-14T03:54:01.295Z,102971.91
2019-05-14T03:56:25.044Z,102976.74
2019-05-14T03:58:59.648Z,102978.05
2019-05-14T04:01:29.886Z,102976.61
2019-05-14T04:04:01.591Z,102976.48
2019-05-14T04:06:33.017Z,102973.85
2019-05-14T04:09:09.463Z,102974.10
2019-05-14T04:11:41.118Z,102980.16
2019-05-14T04:14:14.116Z,102982.36
2019-05-14T04:17:01.355Z,102973.97
2019-05-14T04:19:20.292Z,102971.86
2019-05-14T04:21:52.706Z,102981.98
2019-05-14T04:24:24.088Z,102976.34
2019-05-14T04:27:03.406Z,102977.79
2019-05-14T04:29:30.826Z,102981.59
2019-05-14T04:32:03.945Z,102986.84
2019-05-14T04:34:35.283Z,102986.84
2019-05-14T04:37:09.720Z,102992.48
2019-05-14T04:39:39.965Z,102986.72
2019-05-14T04:42:11.594Z,102988.03
2019-05-14T04:44:42.871Z,102987.23
2019-05-14T04:47:27.970Z,102987.36
2019-05-14T04:49:50.221Z,102984.87
2019-05-14T04:52:20.840Z,102983.44
2019-05-14T04:54:53.081Z,102984.12
2019-05-14T04:57:25.671Z,102977.82
2019-05-14T04:59:59.866Z,102984.34
2019-05-14T05:02:30.543Z,102982.91
2019-05-14T05:05:02.051Z,102988.17
2019-05-14T05:07:33.368Z,102982.25
2019-05-14T05:10:05.027Z,102985.56
2019-05-14T05:12:38.780Z,102982.05
2019-05-14T05:15:09.656Z,102985.20
2019-05-14T05:17:48.098Z,102991.26
2019-05-14T05:20:14.129Z,102994.56
2019-05-14T05:22:48.510Z,102993.52
2019-05-14T05:25:20.680Z,102987.75
2019-05-14T05:27:52.031Z,102994.88
2019-05-14T05:30:23.434Z,102992.63
2019-05-14T05:32:54.733Z,102988.83
2019-05-14T05:35:26.025Z,102982.80
2019-05-14T05:37:58.290Z,102990.85
2019-05-14T05:40:29.765Z,102986.52
2019-05-14T05:43:01.040Z,102987.71
2019-05-14T05:45:32.418Z,102986.01
2019-05-14T05:48:03.882Z,102990.59
2019-05-14T05:50:35.140Z,102991.27
2019-05-14T05:53:08.869Z,102992.70
2019-05-14T05:55:39.602Z,102994.15
2019-05-14T05:58:10.861Z,102991.80
2019-05-14T06:00:42.226Z,102990.20
2019-05-14T06:03:13.455Z,102999.44
2019-05-14T06:05:44.725Z,102996.38
2019-05-14T06:08:16.003Z,102996.80
2019-05-14T06:10:48.981Z,102987.97
2019-05-14T06:13:20.284Z,102997.45
2019-05-14T06:15:52.449Z,102988.50
2019-05-14T06:18:23.813Z,102991.28
2019-05-14T06:20:55.188Z,102995.98
2019-05-14T06:23:28.483Z,102996.40
2019-05-14T06:26:00.196Z,102994.94
2019-05-14T06:28:33.531Z,102987.17
2019-05-14T06:31:04.774Z,102983.50
2019-05-14T06:33:38.778Z,102983.37
2019-05-14T06:36:09.346Z,102989.80
2019-05-14T06:38:40.626Z,102987.83
2019-05-14T06:41:11.959Z,102983.89
2019-05-14T06:43:43.299Z,102984.38
2019-05-14T06:46:14.595Z,102984.91
2019-05-14T06:48:48.344Z,102985.04
2019-05-14T06:51:19.866Z,102985.64
2019-05-14T06:53:52.776Z,102986.55
2019-05-14T06:56:24.197Z,102985.75
2019-05-14T06:58:58.191Z,102984.95
2019-05-14T07:01:29.142Z,102980.72
2019-05-14T07:04:01.512Z,102985.03
2019-05-14T07:06:32.854Z,102976.20
2019-05-14T07:09:08.078Z,102970.52
2019-05-14T07:11:39.050Z,102975.24
2019-05-14T07:14:11.599Z,102974.16
2019-05-14T07:16:44.094Z,102972.57
2019-05-14T07:19:16.035Z,102976.77
2019-05-14T07:21:49.149Z,102973.62
2019-05-14T07:24:20.603Z,102971.48
2019-05-14T07:26:52.875Z,102969.09
2019-05-14T07:29:25.436Z,102965.91
2019-05-14T07:31:58.316Z,102966.95
2019-05-14T07:34:29.688Z,102971.41
2019-05-14T07:37:00.959Z,102967.03
2019-05-14T07:39:32.245Z,102969.13
2019-05-14T07:42:03.560Z,102974.23
2019-05-14T07:44:34.835Z,102969.23
2019-05-14T07:47:08.190Z,102974.74
2019-05-14T07:49:39.234Z,102970.78
2019-05-14T07:52:10.613Z,102971.33
2019-05-14T07:54:42.112Z,102972.06
2019-05-14T07:57:13.414Z,102971.91
2019-05-14T07:59:44.864Z,102977.05
2019-05-14T08:02:16.185Z,102972.23
2019-05-14T08:04:48.666Z,102968.13
2019-05-14T08:07:20.121Z,102960.32
2019-05-14T08:09:51.409Z,102959.54
2019-05-14T08:12:22.633Z,102958.06
2019-05-14T08:15:13.190Z,102955.53
2019-05-14T08:17:28.123Z,102952.34
2019-05-14T08:19:59.518Z,102953.26
2019-05-14T08:22:30.920Z,102948.86
2019-05-14T08:25:02.153Z,102952.26
2019-05-14T08:27:33.529Z,102953.36
2019-05-14T08:30:05.085Z,102946.31
2019-05-14T08:32:38.871Z,102946.31
2019-05-14T08:35:09.468Z,102944.70
2019-05-14T08:37:40.843Z,102939.43
2019-05-14T08:43:34.766Z,102935.69
2019-05-14T08:46:08.203Z,102930.02
2019-05-14T08:48:39.187Z,102926.98
2019-05-14T08:51:10.852Z,102922.10
2019-05-14T08:53:42.467Z,102924.06
2019-05-14T08:56:13.693Z,102918.89
2019-05-14T08:58:44.985Z,102920.33
2019-05-14T09:01:19.189Z,102919.01
2019-05-14T09:03:49.596Z,102918.84
2019-05-14T09:06:22.197Z,102920.91
2019-05-14T09:08:53.379Z,102922.98
2019-05-14T09:11:26.139Z,102918.85
2019-05-14T09:13:59.406Z,102921.64
2019-05-14T09:16:42.774Z,102916.83
2019-05-14T09:19:03.727Z,102913.62
2019-05-14T09:21:34.985Z,102905.91
2019-05-14T09:24:06.170Z,102909.80
2019-05-14T09:26:39.062Z,102906.09
2019-05-14T09:29:19.380Z,102905.27
2019-05-14T09:31:43.518Z,102905.48
2019-05-14T09:34:14.822Z,102902.84
2019-05-14T09:36:48.729Z,102892.52
2019-05-14T09:39:19.010Z,102896.86
2019-05-14T09:41:50.211Z,102896.23
2019-05-14T09:44:21.356Z,102884.34
2019-05-14T09:46:52.576Z,102892.94
2019-05-14T09:49:23.787Z,102883.94
2019-05-14T09:51:55.039Z,102879.20
2019-05-14T09:54:28.803Z,102887.04
2019-05-14T09:56:59.411Z,102882.34
2019-05-14T09:59:30.748Z,102874.25
2019-05-14T10:02:02.060Z,102873.04
2019-05-14T10:04:33.197Z,102874.27
2019-05-14T10:07:04.501Z,102866.27
2019-05-14T10:09:38.643Z,102868.42
2019-05-14T10:12:09.056Z,102871.37
2019-05-14T10:14:40.534Z,102863.95
2019-05-14T10:17:11.750Z,102865.58
2019-05-14T10:19:43.001Z,102864.16
2019-05-14T10:22:14.243Z,102859.78
2019-05-14T10:24:45.674Z,102855.52
2019-05-14T10:27:18.964Z,102851.84
2019-05-14T10:29:51.241Z,102852.56
2019-05-14T10:32:22.450Z,102849.94
2019-05-14T10:34:53.602Z,102850.14
2019-05-14T10:37:24.807Z,102847.98
2019-05-14T10:39:58.463Z,102848.52
2019-05-14T10:42:29.426Z,102839.53
2019-05-14T10:45:00.796Z,102838.75
2019-05-14T10:47:33.307Z,102841.73
2019-05-14T10:50:04.712Z,102841.41
2019-05-14T10:52:35.931Z,102839.08
2019-05-14T10:55:08.021Z,102839.27
2019-05-14T10:57:39.331Z,102830.31
2019-05-14T11:00:10.771Z,102825.48
2019-05-14T11:02:41.993Z,102829.15
2019-05-14T11:05:13.319Z,102819.97
2019-05-14T11:07:44.508Z,102828.62
2019-05-14T11:10:15.852Z,102817.32
2019-05-14T11:12:50.152Z,102820.38
2019-05-14T11:15:20.291Z,102813.03
2019-05-14T11:17:51.521Z,102817.53
2019-05-14T11:20:22.660Z,102813.16
2019-05-14T11:22:53.857Z,102799.72
2019-05-14T11:25:25.086Z,102795.92
2019-05-14T11:27:58.467Z,102791.43
2019-05-14T11:30:29.306Z,102790.41
2019-05-14T11:33:00.587Z,102787.23
2019-05-14T11:35:31.808Z,102774.88
2019-05-14T11:38:03.098Z,102768.43
2019-05-14T11:40:34.516Z,102774.66
2019-05-14T11:43:08.250Z,102768.08
2019-05-14T11:45:39.490Z,102756.63
2019-05-14T11:48:10.906Z,102751.27
2019-05-14T11:50:42.172Z,102754.48
2019-05-14T11:53:13.382Z,102751.38
2019-05-14T11:55:44.634Z,102750.70
2019-05-14T11:58:19.871Z,102744.44
2019-05-14T12:00:49.054Z,102746.87
2019-05-14T12:03:22.028Z,102743.69
2019-05-14T12:05:53.163Z,102745.54
2019-05-14T12:08:24.358Z,102742.36
2019-05-14T12:10:55.561Z,102748.36
2019-05-14T12:13:30.072Z,102742.02
2019-05-14T12:15:59.723Z,102742.69
2019-05-14T12:18:30.913Z,102745.55
2019-05-14T12:21:02.066Z,102747.27
2019-05-14T12:23:34.483Z,102743.06
2019-05-14T12:26:05.652Z,102737.48
2019-05-14T12:28:38.645Z,102726.65
2019-05-14T12:31:09.816Z,102718.66
2019-05-14T12:33:41.044Z,102717.38
2019-05-14T12:36:12.376Z,102708.19
2019-05-14T12:38:43.640Z,102706.81
2019-05-14T12:41:14.849Z,102708.63
2019-05-14T12:43:46.021Z,102709.95
2019-05-14T12:46:19.847Z,102698.87
2019-05-14T12:48:50.503Z,102687.50
2019-05-14T12:51:21.753Z,102684.01
2019-05-14T12:53:52.956Z,102688.02
2019-05-14T12:56:24.173Z,102683.77
2019-05-14T12:58:55.434Z,102690.94
2019-05-14T13:01:26.624Z,102677.65
2019-05-14T13:03:59.197Z,102674.04
2019-05-14T13:06:30.655Z,102663.00
2019-05-14T13:09:01.884Z,102669.03
2019-05-14T13:11:34.666Z,102671.70
2019-05-14T13:14:06.037Z,102673.77
2019-05-14T13:16:39.625Z,102674.47
2019-05-14T13:19:11.154Z,102672.80
2019-05-14T13:21:42.398Z,102659.75
2019-05-14T13:24:13.577Z,102669.73
2019-05-14T13:26:44.857Z,102661.00
2019-05-14T13:29:16.093Z,102655.09
2019-05-14T13:31:49.591Z,102658.27
2019-05-14T13:34:20.321Z,102655.20
2019-05-14T13:36:51.690Z,102656.02
2019-05-14T13:39:23.092Z,102649.01
2019-05-14T13:41:54.319Z,102650.46
2019-05-14T13:44:25.495Z,102648.59
2019-05-14T13:46:59.549Z,102646.91
2019-05-14T13:49:31.222Z,102656.25
2019-05-14T13:52:02.525Z,102648.61
2019-05-14T13:54:34.766Z,102642.64
2019-05-14T13:57:08.324Z,102640.17
2019-05-14T13:59:43.887Z,102638.29
2019-05-14T14:02:12.166Z,102630.16
2019-05-14T14:04:43.342Z,102627.43
2019-05-14T14:07:14.522Z,102628.80
2019-05-14T14:09:45.776Z,102629.60
2019-05-14T14:12:16.977Z,102626.67
2019-05-14T14:14:49.337Z,102631.30
2019-05-14T14:17:21.628Z,102625.17
2019-05-14T14:19:52.922Z,102616.30
2019-05-14T14:22:24.247Z,102612.70
2019-05-14T14:24:55.550Z,102608.09
2019-05-14T14:27:29.712Z,102598.77
2019-05-14T14:29:59.716Z,102598.49
2019-05-14T14:32:30.894Z,102588.97
2019-05-14T14:35:02.164Z,102576.59
2019-05-14T14:37:33.318Z,102575.70
2019-05-14T14:40:04.541Z,102573.46
2019-05-14T14:42:36.195Z,102573.08
2019-05-14T14:45:09.444Z,102572.58
2019-05-14T14:47:40.881Z,102576.17
2019-05-14T14:50:12.266Z,102574.34
2019-05-14T14:52:43.616Z,102573.27
2019-05-14T14:55:14.796Z,102567.06
2019-05-14T14:57:53.544Z,102566.58
2019-05-14T15:00:20.303Z,102569.17
2019-05-14T15:02:53.252Z,102561.94
2019-05-14T15:05:24.541Z,102558.61
2019-05-14T15:07:59.901Z,102542.30
2019-05-14T15:10:29.965Z,102550.46
2019-05-14T15:13:01.184Z,102554.41
2019-05-14T15:15:32.656Z,102556.92
2019-05-14T15:18:03.878Z,102558.93
2019-05-14T15:20:35.203Z,102552.53
2019-05-14T15:23:09.478Z,102553.82
2019-05-14T15:25:39.546Z,102555.27
2019-05-14T15:28:10.869Z,102550.09
2019-05-14T15:30:42.470Z,102535.26
2019-05-14T15:33:13.874Z,102533.23
2019-05-14T15:35:45.749Z,102528.63
2019-05-14T15:38:16.927Z,102522.41
2019-05-14T15:40:48.876Z,102530.08
2019-05-14T15:43:20.201Z,102523.97
2019-05-14T15:45:51.401Z,102531.08
2019-05-14T15:48:23.588Z,102526.32
2019-05-14T15:50:55.044Z,102524.37
2019-05-14T15:53:28.932Z,102521.99
2019-05-14T15:55:59.591Z,102522.22
2019-05-14T15:58:30.956Z,102513.20
2019-05-14T16:01:02.350Z,102518.37
2019-05-14T16:03:35.285Z,102521.64
2019-05-14T16:06:08.814Z,102526.81
2019-05-14T16:08:40.400Z,102532.86
2019-05-14T16:11:11.779Z,102532.11
2019-05-14T16:13:43.083Z,102527.41
2019-05-14T16:16:14.453Z,102527.04
2019-05-14T16:18:47.980Z,102529.45
2019-05-14T16:21:19.028Z,102519.64
2019-05-14T16:23:50.264Z,102510.39
2019-05-14T16:26:21.639Z,102510.92
2019-05-14T16:28:52.880Z,102504.84
2019-05-14T16:31:24.201Z,102517.30
2019-05-14T16:33:55.391Z,102525.81
2019-05-14T16:36:28.756Z,102528.81
2019-05-14T16:38:59.813Z,102530.61
2019-05-14T16:41:32.011Z,102531.21
2019-05-14T16:44:03.865Z,102531.07
2019-05-14T16:46:35.108Z,102522.13
2019-05-14T16:49:08.770Z,102526.78
2019-05-14T16:51:39.368Z,102526.19
2019-05-14T16:54:10.746Z,102524.03
2019-05-14T16:56:42.046Z,102529.27
2019-05-14T16:59:13.296Z,102529.58
2019-05-14T17:01:45.903Z,102527.19
2019-05-14T17:04:19.067Z,102530.83
2019-05-14T17:06:50.494Z,102529.07
2019-05-14T17:09:21.988Z,102524.85
2019-05-14T17:11:53.284Z,102526.58
2019-05-14T17:14:25.748Z,102527.91
2019-05-14T17:16:59.442Z,102530.21
2019-05-14T17:19:30.019Z,102525.67
2019-05-14T17:22:01.544Z,102531.30
2019-05-14T17:24:33.225Z,102529.13
2019-05-14T17:27:04.967Z,102535.04
2019-05-14T17:29:38.720Z,102533.62
2019-05-14T17:32:09.341Z,102532.80
2019-05-14T17:34:40.791Z,102536.72
2019-05-14T17:37:12.332Z,102533.17
2019-05-14T17:39:43.563Z,102537.22
2019-05-14T17:42:15.147Z,102533.77
2019-05-14T17:44:48.245Z,102526.75
2019-05-14T17:47:19.680Z,102533.54
2019-05-14T17:49:53.728Z,102537.19
2019-05-14T17:52:25.538Z,102541.06
2019-05-14T17:54:56.791Z,102537.00
2019-05-14T17:57:34.786Z,102539.66
2019-05-14T18:00:01.575Z,102536.38
2019-05-14T18:02:33.640Z,102535.17
2019-05-14T18:05:05.860Z,102531.69
2019-05-14T18:07:37.605Z,102536.58
2019-05-14T18:10:10.148Z,102533.56
2019-05-14T18:12:41.508Z,102534.56
2019-05-14T18:15:13.174Z,102532.89
2019-05-14T18:17:44.468Z,102537.86
2019-05-14T18:20:15.929Z,102533.08
2019-05-14T18:22:48.685Z,102538.79
2019-05-14T18:25:22.909Z,102532.81
2019-05-14T18:27:54.176Z,102538.02
2019-05-14T18:30:25.403Z,102541.47
2019-05-14T18:32:58.379Z,102546.72
2019-05-14T18:35:34.975Z,102542.20
2019-05-14T18:38:13.509Z,102549.09
2019-05-14T18:40:46.666Z,102547.45
2019-05-14T18:43:19.276Z,102553.03
2019-05-14T18:45:51.060Z,102549.91
2019-05-14T18:48:22.595Z,102555.48
2019-05-14T18:50:53.867Z,102546.45
2019-05-14T18:53:25.151Z,102555.84
2019-05-14T18:55:56.343Z,102553.76
2019-05-14T18:58:29.361Z,102550.76
2019-05-14T19:01:00.567Z,102550.17
2019-05-14T19:03:33.435Z,102554.67
2019-05-14T19:06:04.924Z,102555.19
2019-05-14T19:08:36.604Z,102559.77
2019-05-14T19:11:12.556Z,102553.77
2019-05-14T19:13:58.626Z,102551.06
2019-05-14T19:16:44.107Z,102552.47
2019-05-14T19:19:22.749Z,102557.08
2019-05-14T19:21:59.423Z,102556.77
2019-05-14T19:24:38.278Z,102552.61
2019-05-14T19:27:11.501Z,102562.56
2019-05-14T19:29:42.782Z,102556.87
2019-05-14T19:32:13.990Z,102549.34
2019-05-14T19:34:45.289Z,102548.44
2019-05-14T19:37:20.504Z,102547.63
2019-05-14T19:40:02.804Z,102542.41
2019-05-14T19:43:00.674Z,102543.41
2019-05-14T19:48:18.908Z,102552.69
2019-05-14T19:51:09.609Z,102547.47
2019-05-14T19:53:45.775Z,102544.44
2019-05-14T19:56:20.222Z,102546.03
2019-05-14T19:58:59.827Z,102550.48
2019-05-14T20:01:31.314Z,102543.69
2019-05-14T20:04:02.622Z,102542.47
2019-05-14T20:06:33.991Z,102548.34
2019-05-14T20:09:09.235Z,102551.58
2019-05-14T20:11:42.157Z,102551.77
2019-05-14T20:14:13.455Z,102556.75
2019-05-14T20:16:44.756Z,102552.45
2019-05-14T20:19:15.985Z,102556.52
2019-05-14T20:21:48.162Z,102557.39
2019-05-14T20:24:19.474Z,102558.41
2019-05-14T20:27:04.947Z,102554.94
2019-05-14T20:29:24.104Z,102554.59
2019-05-14T20:31:55.565Z,102549.51
2019-05-14T20:34:28.555Z,102551.52
2019-05-14T20:37:00.909Z,102553.31
2019-05-14T20:39:33.561Z,102544.55
2019-05-14T20:42:05.161Z,102543.86
2019-05-14T20:44:38.612Z,102540.48
2019-05-14T20:47:09.874Z,102544.98
2019-05-14T20:49:41.730Z,102548.09
2019-05-14T20:52:34.099Z,102542.37
2019-05-14T20:55:14.149Z,102541.66
2019-05-14T20:57:49.102Z,102539.36
2019-05-14T21:00:20.651Z,102537.73
2019-05-14T21:02:52.094Z,102538.30
2019-05-14T21:05:23.371Z,102529.94
2019-05-14T21:07:54.801Z,102538.84
2019-05-14T21:10:28.788Z,102531.11
2019-05-14T21:12:59.683Z,102536.57
2019-05-14T21:15:30.980Z,102539.49
2019-05-14T21:18:02.380Z,102533.08
2019-05-14T21:20:33.741Z,102537.71
2019-05-14T21:23:05.078Z,102532.52
2019-05-14T21:25:38.527Z,102528.20
2019-05-14T21:28:09.480Z,102532.23
2019-05-14T21:30:41.869Z,102530.77
2019-05-14T21:33:13.442Z,102530.80
2019-05-14T21:35:44.826Z,102530.19
2019-05-14T21:38:16.212Z,102523.88
2019-05-14T21:40:49.770Z,102523.62
2019-05-14T21:43:20.588Z,102525.94
2019-05-14T21:45:51.886Z,102529.67
2019-05-14T21:48:23.160Z,102522.45
2019-05-14T21:50:54.494Z,102523.65
2019-05-14T21:53:25.869Z,102518.77
2019-05-14T21:55:58.682Z,102519.45
2019-05-14T21:58:30.166Z,102516.20
2019-05-14T22:01:02.497Z,102517.80
2019-05-14T22:03:33.771Z,102510.07
2019-05-14T22:06:05.235Z,102518.64
2019-05-14T22:08:39.239Z,102512.77
2019-05-14T22:11:09.807Z,102512.52
2019-05-14T22:13:41.136Z,102506.21
2019-05-14T22:16:12.452Z,102510.58
2019-05-14T22:18:43.881Z,102511.64
2019-05-14T22:21:15.376Z,102516.41
2019-05-14T22:23:48.156Z,102511.14
2019-05-14T22:26:19.646Z,102511.03
2019-05-14T22:28:50.957Z,102510.39
2019-05-14T22:31:22.341Z,102509.70
2019-05-14T22:33:53.762Z,102511.72
2019-05-14T22:36:25.445Z,102511.89
2019-05-14T22:38:57.889Z,102512.06
2019-05-14T22:41:29.654Z,102510.27
2019-05-14T22:44:01.177Z,102517.23
2019-05-14T22:46:32.802Z,102512.52
2019-05-14T22:49:04.223Z,102505.72
2019-05-14T22:51:42.854Z,102516.24
2019-05-14T22:54:23.360Z,102508.23
2019-05-14T22:56:59.006Z,102515.48
2019-05-14T22:59:30.740Z,102504.63
2019-05-14T23:02:02.050Z,102503.97
2019-05-14T23:04:33.662Z,102505.06
2019-05-14T23:07:05.021Z,102504.30
2019-05-14T23:09:38.558Z,102503.14
2019-05-14T23:12:12.084Z,102506.44
2019-05-14T23:14:42.640Z,102500.95
2019-05-14T23:17:13.857Z,102503.36
2019-05-14T23:19:45.360Z,102503.09
2019-05-14T23:22:18.574Z,102502.47
2019-05-14T23:24:49.772Z,102504.73
2019-05-14T23:27:21.019Z,102496.77
2019-05-14T23:29:52.379Z,102500.33
2019-05-14T23:32:23.690Z,102502.73
2019-05-14T23:34:55.067Z,102495.39
2019-05-14T23:37:28.944Z,102497.24
2019-05-14T23:40:00.299Z,102492.53
2019-05-14T23:42:32.014Z,102488.24
2019-05-14T23:45:03.477Z,102494.16
2019-05-14T23:47:34.922Z,102487.74
2019-05-14T23:50:08.156Z,102489.21
2019-05-14T23:52:39.374Z,102491.06
2019-05-14T23:55:10.645Z,102484.65
2019-05-14T23:57:42.071Z,102482.98
